createdAt,value
2022-08-14T00:00:44.537Z,99.90
2022-08-14T00:03:20.690Z,99.90
2022-08-14T00:06:00.484Z,99.90
2022-08-14T00:08:43.485Z,99.90
2022-08-14T00:11:14.189Z,99.90
2022-08-14T00:13:52.536Z,99.90
2022-08-14T00:16:41.220Z,99.90
2022-08-14T00:19:18.673Z,99.90
2022-08-14T00:21:50.298Z,99.90
2022-08-14T00:24:23.238Z,99.90
2022-08-14T00:27:01.893Z,99.90
2022-08-14T00:29:39.892Z,99.90
2022-08-14T00:32:52.129Z,99.90
2022-08-14T00:35:01.422Z,99.90
2022-08-14T00:37:30.649Z,99.90
2022-08-14T00:40:03.076Z,99.90
2022-08-14T00:42:55.924Z,99.90
2022-08-14T00:45:25.109Z,99.90
2022-08-14T00:47:53.667Z,99.90
2022-08-14T00:50:23.691Z,99.90
2022-08-14T00:52:56.058Z,99.90
2022-08-14T00:55:27.954Z,99.90
2022-08-14T00:58:18.610Z,99.90
2022-08-14T01:00:57.567Z,99.90
2022-08-14T01:03:30.861Z,99.90
2022-08-14T01:06:00.745Z,99.90
2022-08-14T01:08:52.235Z,99.90
2022-08-14T01:11:35.626Z,99.90
2022-08-14T01:14:25.203Z,99.90
2022-08-14T01:16:55.434Z,99.90
2022-08-14T01:19:43.486Z,99.90
2022-08-14T01:22:18.560Z,99.90
2022-08-14T01:24:48.626Z,99.90
2022-08-14T01:27:22.420Z,99.90
2022-08-14T01:30:03.767Z,99.90
2022-08-14T01:32:37.357Z,99.90
2022-08-14T01:40:54.377Z,99.90
2022-08-14T01:43:27.064Z,99.90
2022-08-14T01:45:57.752Z,99.90
2022-08-14T01:48:37.489Z,99.90
2022-08-14T01:51:19.340Z,99.90
2022-08-14T01:53:54.735Z,99.90
2022-08-14T01:56:37.168Z,99.90
2022-08-14T01:59:18.144Z,99.90
2022-08-14T02:01:57.916Z,99.90
2022-08-14T02:04:54.884Z,99.90
2022-08-14T02:07:34.950Z,99.90
2022-08-14T02:10:12.895Z,99.90
2022-08-14T02:12:49.019Z,99.90
2022-08-14T02:15:26.442Z,99.90
2022-08-14T02:17:55.118Z,99.90
2022-08-14T02:20:24.901Z,99.90
2022-08-14T02:22:54.929Z,99.90
2022-08-14T02:25:23.988Z,99.90
2022-08-14T02:28:24.384Z,99.90
2022-08-14T02:30:48.670Z,99.90
2022-08-14T02:33:23.402Z,99.90
2022-08-14T02:35:53.206Z,99.90
2022-08-14T02:38:34.950Z,99.90
2022-08-14T02:41:08.962Z,99.90
2022-08-14T02:43:46.470Z,99.90
2022-08-14T02:46:20.076Z,99.90
2022-08-14T02:49:04.241Z,99.90
2022-08-14T02:51:36.734Z,99.90
2022-08-14T02:54:07.325Z,99.90
2022-08-14T02:57:16.625Z,99.90
2022-08-14T02:59:33.778Z,99.90
2022-08-14T03:02:03.658Z,99.90
2022-08-14T03:04:33.575Z,99.90
2022-08-14T03:07:06.318Z,99.90
2022-08-14T03:10:24.709Z,99.90
2022-08-14T03:12:31.182Z,99.90
2022-08-14T03:15:16.486Z,99.90
2022-08-14T03:17:57.527Z,99.90
2022-08-14T03:20:28.417Z,99.90
2022-08-14T03:22:59.562Z,99.90
2022-08-14T03:25:34.131Z,99.90
2022-08-14T03:28:07.428Z,99.90
2022-08-14T03:30:39.352Z,99.90
2022-08-14T03:33:11.624Z,99.90
2022-08-14T03:35:59.871Z,99.90
2022-08-14T03:39:14.406Z,99.90
2022-08-14T03:41:23.174Z,99.90
2022-08-14T03:44:00.979Z,99.90
2022-08-14T03:46:54.922Z,99.90
2022-08-14T03:49:29.227Z,99.90
2022-08-14T03:52:00.787Z,99.90
2022-08-14T03:54:30.158Z,99.90
2022-08-14T03:57:02.890Z,99.90
2022-08-14T03:59:32.850Z,99.90
2022-08-14T04:02:04.588Z,99.90
2022-08-14T04:04:34.116Z,99.90
2022-08-14T04:07:03.464Z,99.90
2022-08-14T04:09:31.958Z,99.90
2022-08-14T04:12:00.497Z,99.90
2022-08-14T04:14:31.057Z,99.90
2022-08-14T04:17:10.140Z,99.90
2022-08-14T04:19:40.429Z,99.90
2022-08-14T04:22:09.855Z,99.90
2022-08-14T04:24:40.331Z,99.90
2022-08-14T04:27:10.482Z,99.90
2022-08-14T04:29:39.866Z,99.90
2022-08-14T04:33:01.074Z,99.90
2022-08-14T04:35:01.482Z,99.90
2022-08-14T04:37:59.131Z,99.90
2022-08-14T04:40:45.446Z,99.90
2022-08-14T04:43:38.749Z,99.90
2022-08-14T04:46:54.708Z,99.90
2022-08-14T04:49:00.542Z,99.90
2022-08-14T04:51:46.227Z,99.90
2022-08-14T04:54:19.103Z,99.90
2022-08-14T04:56:47.589Z,99.90
2022-08-14T04:59:16.916Z,99.90
2022-08-14T05:01:49.802Z,99.90
2022-08-14T05:04:21.851Z,99.90
2022-08-14T05:06:53.562Z,99.90
2022-08-14T05:09:23.247Z,99.90
2022-08-14T05:11:51.889Z,99.90
2022-08-14T05:14:45.674Z,99.90
2022-08-14T05:17:11.478Z,99.90
2022-08-14T05:19:45.060Z,99.90
2022-08-14T05:22:31.129Z,99.90
2022-08-14T05:24:59.998Z,99.90
2022-08-14T05:27:31.242Z,99.90
2022-08-14T05:30:00.606Z,99.90
2022-08-14T05:32:29.116Z,99.90
2022-08-14T05:35:00.881Z,99.90
2022-08-14T05:37:31.002Z,99.90
2022-08-14T05:40:02.282Z,99.90
2022-08-14T05:42:34.494Z,99.90
2022-08-14T05:45:05.315Z,99.90
2022-08-14T05:47:42.949Z,99.90
2022-08-14T05:50:17.308Z,99.90
2022-08-14T05:52:48.242Z,99.90
2022-08-14T05:55:22.136Z,99.90
2022-08-14T05:57:54.965Z,99.90
2022-08-14T06:00:30.831Z,99.90
2022-08-14T06:03:07.133Z,99.90
2022-08-14T06:05:38.735Z,99.90
2022-08-14T06:08:36.672Z,99.90
2022-08-14T06:11:06.681Z,99.90
2022-08-14T06:13:44.897Z,99.90
2022-08-14T06:16:17.726Z,99.90
2022-08-14T06:18:51.802Z,99.90
2022-08-14T06:21:23.626Z,99.90
2022-08-14T06:23:52.816Z,99.90
2022-08-14T06:26:22.558Z,99.90
2022-08-14T06:28:58.566Z,99.90
2022-08-14T06:31:27.089Z,99.90
2022-08-14T06:35:10.641Z,99.90
2022-08-14T06:36:47.416Z,99.90
2022-08-14T06:39:17.297Z,99.90
2022-08-14T06:42:04.883Z,99.90
2022-08-14T06:44:34.853Z,99.90
2022-08-14T06:47:05.520Z,99.90
2022-08-14T06:49:40.102Z,99.90
2022-08-14T06:52:16.568Z,99.90
2022-08-14T06:54:45.605Z,99.90
2022-08-14T06:57:14.291Z,99.90
2022-08-14T06:59:43.231Z,99.90
2022-08-14T07:02:29.695Z,99.90
2022-08-14T07:05:17.007Z,99.90
2022-08-14T07:07:53.509Z,99.90
2022-08-14T07:10:24.757Z,99.90
2022-08-14T07:13:01.405Z,99.90
2022-08-14T07:15:34.082Z,99.90
2022-08-14T07:18:09.297Z,99.90
2022-08-14T07:20:38.254Z,99.90
2022-08-14T07:23:20.769Z,99.90
2022-08-14T07:25:51.422Z,99.90
2022-08-14T07:28:23.789Z,99.90
2022-08-14T07:31:04.242Z,99.90
2022-08-14T07:33:41.820Z,99.90
2022-08-14T07:36:27.204Z,99.90
2022-08-14T07:39:03.576Z,99.90
2022-08-14T07:41:42.553Z,99.90
2022-08-14T07:44:28.574Z,99.90
2022-08-14T07:47:01.011Z,99.90
2022-08-14T07:49:29.970Z,99.90
2022-08-14T07:52:00.175Z,99.90
2022-08-14T07:54:31.746Z,99.90
2022-08-14T07:57:11.793Z,99.90
2022-08-14T07:59:43.641Z,99.90
2022-08-14T08:02:16.998Z,99.90
2022-08-14T08:04:54.033Z,99.90
2022-08-14T08:07:24.141Z,99.90
2022-08-14T08:09:59.794Z,99.90
2022-08-14T08:12:32.357Z,99.90
2022-08-14T08:15:07.353Z,99.90
2022-08-14T08:17:53.389Z,99.90
2022-08-14T08:20:27.251Z,99.90
2022-08-14T08:23:00.541Z,99.90
2022-08-14T08:25:39.679Z,99.90
2022-08-14T08:28:21.818Z,99.90
2022-08-14T08:30:56.367Z,99.90
2022-08-14T08:33:32.101Z,99.90
2022-08-14T08:36:12.961Z,99.90
2022-08-14T08:39:17.101Z,99.90
2022-08-14T08:41:44.351Z,99.90
2022-08-14T08:44:17.514Z,99.90
2022-08-14T08:47:05.768Z,99.90
2022-08-14T08:49:48.278Z,99.90
2022-08-14T08:52:25.437Z,99.90
2022-08-14T08:54:59.736Z,99.90
2022-08-14T08:57:37.449Z,99.90
2022-08-14T09:00:25.413Z,99.90
2022-08-14T09:02:57.790Z,99.60
2022-08-14T09:05:26.800Z,99.70
2022-08-14T09:07:56.486Z,99.90
2022-08-14T09:10:27.182Z,99.90
2022-08-14T09:12:59.104Z,99.90
2022-08-14T09:15:36.635Z,99.90
2022-08-14T09:18:13.453Z,99.90
2022-08-14T09:20:49.406Z,99.90
2022-08-14T09:23:18.529Z,99.90
2022-08-14T09:26:05.129Z,99.90
2022-08-14T09:28:52.215Z,99.90
2022-08-14T09:31:21.735Z,99.90
2022-08-14T09:34:04.405Z,99.90
2022-08-14T09:37:07.555Z,99.90
2022-08-14T09:39:46.013Z,99.90
2022-08-14T09:42:33.997Z,99.90
2022-08-14T09:45:16.697Z,99.90
2022-08-14T09:47:49.214Z,99.90
2022-08-14T09:50:25.814Z,99.90
2022-08-14T09:52:59.249Z,99.90
2022-08-14T09:55:36.788Z,99.90
2022-08-14T09:58:20.013Z,99.90
2022-08-14T10:00:57.501Z,99.90
2022-08-14T10:03:34.727Z,99.90
2022-08-14T10:06:12.134Z,99.90
2022-08-14T10:08:51.130Z,99.90
2022-08-14T10:11:23.039Z,99.90
2022-08-14T10:13:56.050Z,99.90
2022-08-14T10:16:33.678Z,99.90
2022-08-14T10:19:09.374Z,99.90
2022-08-14T10:21:58.786Z,99.90
2022-08-14T10:24:36.385Z,99.90
2022-08-14T10:27:16.920Z,99.90
2022-08-14T10:29:49.001Z,99.90
2022-08-14T10:32:28.267Z,99.90
2022-08-14T10:35:13.435Z,99.90
2022-08-14T10:37:48.408Z,99.90
2022-08-14T10:40:38.515Z,99.90
2022-08-14T10:43:23.164Z,99.90
2022-08-14T10:46:03.277Z,99.90
2022-08-14T10:49:00.959Z,99.90
2022-08-14T10:51:41.561Z,99.90
2022-08-14T10:54:35.296Z,99.90
2022-08-14T10:57:17.378Z,99.90
2022-08-14T10:59:49.973Z,99.90
2022-08-14T11:02:45.192Z,99.90
2022-08-14T11:05:23.674Z,99.90
2022-08-14T11:07:59.737Z,98.90
2022-08-14T11:10:42.950Z,99.50
2022-08-14T11:13:16.936Z,98.00
2022-08-14T11:15:46.349Z,97.30
2022-08-14T11:18:20.567Z,96.50
2022-08-14T11:21:02.243Z,96.80
2022-08-14T11:23:38.607Z,96.60
2022-08-14T11:26:10.255Z,96.20
2022-08-14T11:28:46.906Z,96.30
2022-08-14T11:31:22.035Z,96.60
2022-08-14T11:33:55.400Z,95.10
2022-08-14T11:37:02.797Z,95.30
2022-08-14T11:39:33.409Z,96.10
2022-08-14T11:42:55.783Z,96.60
2022-08-14T11:44:56.875Z,96.70
2022-08-14T11:47:35.324Z,96.60
2022-08-14T11:50:33.857Z,96.20
2022-08-14T11:53:08.985Z,94.00
2022-08-14T11:55:40.002Z,96.00
2022-08-14T11:58:23.961Z,99.90
2022-08-14T12:00:57.290Z,99.90
2022-08-14T12:03:51.354Z,99.90
2022-08-14T12:06:29.397Z,99.90
2022-08-14T12:09:14.772Z,99.90
2022-08-14T12:11:47.009Z,99.90
2022-08-14T12:14:30.645Z,99.90
2022-08-14T12:17:09.599Z,99.90
2022-08-14T12:19:50.603Z,99.90
2022-08-14T12:22:29.665Z,99.90
2022-08-14T12:25:01.318Z,99.90
2022-08-14T12:27:41.916Z,99.90
2022-08-14T12:30:29.134Z,99.90
2022-08-14T12:33:05.481Z,99.90
2022-08-14T12:35:40.850Z,99.90
2022-08-14T12:38:14.841Z,99.90
2022-08-14T12:40:51.918Z,99.90
2022-08-14T12:43:22.981Z,99.90
2022-08-14T12:45:55.181Z,99.90
2022-08-14T12:48:31.872Z,99.90
2022-08-14T12:51:01.377Z,99.90
2022-08-14T12:53:39.950Z,99.90
2022-08-14T12:56:21.490Z,99.90
2022-08-14T12:59:00.249Z,99.90
2022-08-14T13:01:31.457Z,99.90
2022-08-14T13:04:10.023Z,99.90
2022-08-14T13:06:40.538Z,99.90
2022-08-14T13:09:11.684Z,99.90
2022-08-14T13:11:45.519Z,99.90
2022-08-14T13:14:17.610Z,99.90
2022-08-14T13:16:50.267Z,99.90
2022-08-14T13:19:20.589Z,99.90
2022-08-14T13:21:58.789Z,99.90
2022-08-14T13:24:35.976Z,99.90
2022-08-14T13:27:09.801Z,99.90
2022-08-14T13:29:46.566Z,99.90
2022-08-14T13:32:17.978Z,99.90
2022-08-14T13:34:49.577Z,99.90
2022-08-14T13:37:22.728Z,99.90
2022-08-14T13:39:56.550Z,99.90
2022-08-14T13:42:30.783Z,99.90
2022-08-14T13:45:03.686Z,99.90
2022-08-14T13:47:33.402Z,99.90
2022-08-14T13:50:04.648Z,99.90
2022-08-14T13:52:52.287Z,99.90
2022-08-14T13:55:24.166Z,99.90
2022-08-14T13:58:04.467Z,99.90
2022-08-14T14:00:52.870Z,99.90
2022-08-14T14:03:30.484Z,99.90
2022-08-14T14:06:01.760Z,99.90
2022-08-14T14:08:46.723Z,99.90
2022-08-14T14:11:18.183Z,99.90
2022-08-14T14:13:49.730Z,99.90
2022-08-14T14:16:21.597Z,99.90
2022-08-14T14:18:56.177Z,99.90
2022-08-14T14:21:28.751Z,99.90
2022-08-14T14:23:58.206Z,99.90
2022-08-14T14:26:29.376Z,99.90
2022-08-14T14:29:05.106Z,99.90
2022-08-14T14:31:33.946Z,99.90
2022-08-14T14:34:07.325Z,99.90
2022-08-14T14:36:50.142Z,99.90
2022-08-14T14:39:25.574Z,99.90
2022-08-14T14:42:04.123Z,99.90
2022-08-14T14:44:40.607Z,99.90
2022-08-14T14:47:10.598Z,99.90
2022-08-14T14:49:51.067Z,99.90
2022-08-14T14:52:27.691Z,99.90
2022-08-14T14:54:58.925Z,99.90
2022-08-14T14:57:35.351Z,99.90
2022-08-14T15:00:12.587Z,99.90
2022-08-14T15:02:44.533Z,99.90
2022-08-14T15:05:16.199Z,99.90
2022-08-14T15:07:45.752Z,99.90
2022-08-14T15:10:26.823Z,99.90
2022-08-14T15:13:00.188Z,99.90
2022-08-14T15:15:37.481Z,99.90
2022-08-14T15:18:36.116Z,99.90
2022-08-14T15:20:58.221Z,99.90
2022-08-14T15:23:32.469Z,99.90
2022-08-14T15:26:24.167Z,99.90
2022-08-14T15:29:05.926Z,99.90
2022-08-14T15:31:37.585Z,99.90
2022-08-14T15:34:44.997Z,99.90
2022-08-14T15:37:05.670Z,99.90
2022-08-14T15:39:35.762Z,99.90
2022-08-14T15:42:14.692Z,99.90
2022-08-14T15:44:57.376Z,99.90
2022-08-14T15:47:34.998Z,99.90
2022-08-14T15:50:11.394Z,99.90
2022-08-14T15:52:42.931Z,99.90
2022-08-14T15:55:15.190Z,99.90
2022-08-14T15:57:51.440Z,99.90
2022-08-14T16:00:49.959Z,99.90
2022-08-14T16:03:24.927Z,99.90
2022-08-14T16:05:57.007Z,99.90
2022-08-14T16:08:28.759Z,99.00
2022-08-14T16:11:00.303Z,99.30
2022-08-14T16:13:39.529Z,99.90
2022-08-14T16:16:50.427Z,99.20
2022-08-14T16:19:10.653Z,99.10
2022-08-14T16:22:01.351Z,99.20
2022-08-14T16:24:33.540Z,99.90
2022-08-14T16:27:05.257Z,99.90
2022-08-14T16:29:35.992Z,99.90
2022-08-14T16:32:32.821Z,99.90
2022-08-14T16:34:55.846Z,99.90
2022-08-14T16:37:30.195Z,99.90
2022-08-14T16:40:01.742Z,99.90
2022-08-14T16:42:39.302Z,99.90
2022-08-14T16:45:25.416Z,99.90
2022-08-14T16:47:54.321Z,99.90
2022-08-14T16:50:43.623Z,99.90
2022-08-14T16:53:17.693Z,99.90
2022-08-14T16:55:53.806Z,99.90
2022-08-14T16:58:29.932Z,99.90
2022-08-14T17:01:24.547Z,99.90
2022-08-14T17:03:56.734Z,99.90
2022-08-14T17:06:47.971Z,99.90
2022-08-14T17:09:32.321Z,99.90
2022-08-14T17:12:07.597Z,99.90
2022-08-14T17:15:03.865Z,99.90
2022-08-14T17:17:57.934Z,99.90
2022-08-14T17:20:39.206Z,99.90
2022-08-14T17:23:19.638Z,99.90
2022-08-14T17:25:50.914Z,99.90
2022-08-14T17:28:50.164Z,99.90
2022-08-14T17:34:00.856Z,99.90
2022-08-14T17:36:31.690Z,99.90
2022-08-14T17:39:06.765Z,99.90
2022-08-14T17:41:43.689Z,99.90
2022-08-14T17:44:21.972Z,99.90
2022-08-14T17:47:04.224Z,99.90
2022-08-14T17:49:35.079Z,99.90
2022-08-14T17:52:16.632Z,99.90
2022-08-14T17:54:52.759Z,99.90
2022-08-14T17:57:28.374Z,99.90
2022-08-14T17:59:59.105Z,99.90
2022-08-14T18:02:31.345Z,99.90
2022-08-14T18:05:02.787Z,99.90
2022-08-14T18:08:00.010Z,99.90
2022-08-14T18:10:56.225Z,99.90
2022-08-14T18:13:16.562Z,99.90
2022-08-14T18:15:51.092Z,99.90
2022-08-14T18:18:20.014Z,99.90
2022-08-14T18:21:39.796Z,99.90
2022-08-14T18:23:43.140Z,99.90
2022-08-14T18:26:36.447Z,99.90
2022-08-14T18:29:03.039Z,99.90
2022-08-14T18:31:46.550Z,99.90
2022-08-14T18:34:31.058Z,99.90
2022-08-14T18:37:14.339Z,99.90
2022-08-14T18:40:03.137Z,99.90
2022-08-14T18:42:44.715Z,99.90
2022-08-14T18:45:18.896Z,99.90
2022-08-14T18:48:28.726Z,99.90
2022-08-14T18:51:15.137Z,99.90
2022-08-14T18:53:59.558Z,99.90
2022-08-14T18:56:58.860Z,99.90
2022-08-14T18:59:40.296Z,99.90
2022-08-14T19:02:43.482Z,99.90
2022-08-14T19:05:14.295Z,99.90
2022-08-14T19:07:48.134Z,99.90
2022-08-14T19:10:31.958Z,99.90
2022-08-14T19:13:12.965Z,99.90
2022-08-14T19:15:44.648Z,99.90
2022-08-14T19:18:26.644Z,99.90
2022-08-14T19:20:58.909Z,99.90
2022-08-14T19:23:42.732Z,99.90
2022-08-14T19:26:35.405Z,99.90
2022-08-14T19:29:24.243Z,99.90
2022-08-14T19:31:59.019Z,99.90
2022-08-14T19:34:52.740Z,99.90
2022-08-14T19:37:47.817Z,99.90
2022-08-14T19:40:33.232Z,99.90
2022-08-14T19:43:06.480Z,99.90
2022-08-14T19:45:35.572Z,99.90
2022-08-14T19:48:13.347Z,99.90
2022-08-14T19:50:46.380Z,99.90
2022-08-14T19:53:17.113Z,99.90
2022-08-14T19:55:59.519Z,99.90
2022-08-14T19:58:55.049Z,99.90
2022-08-14T20:01:37.085Z,99.90
2022-08-14T20:04:46.500Z,99.90
2022-08-14T20:07:09.089Z,99.90
2022-08-14T20:11:07.363Z,99.90
2022-08-14T20:12:35.542Z,99.90
2022-08-14T20:15:47.127Z,99.90
2022-08-14T20:18:38.982Z,99.90
2022-08-14T20:21:07.500Z,99.90
2022-08-14T20:23:38.904Z,99.90
2022-08-14T20:26:31.429Z,99.90
2022-08-14T20:29:05.342Z,99.90
2022-08-14T20:31:38.582Z,99.90
2022-08-14T20:34:24.889Z,99.90
2022-08-14T20:37:09.757Z,99.90
2022-08-14T20:39:54.308Z,99.90
2022-08-14T20:42:43.882Z,99.90
2022-08-14T20:45:21.388Z,99.90
2022-08-14T20:47:58.537Z,99.90
2022-08-14T20:50:31.406Z,99.90
2022-08-14T20:53:05.906Z,99.90
2022-08-14T20:55:41.772Z,99.90
2022-08-14T20:58:41.955Z,99.90
2022-08-14T21:01:33.708Z,99.90
2022-08-14T21:04:12.087Z,99.90
2022-08-14T21:07:23.337Z,99.90
2022-08-14T21:10:03.248Z,99.90
2022-08-14T21:12:34.938Z,99.90
2022-08-14T21:15:11.090Z,99.90
2022-08-14T21:17:43.350Z,99.90
2022-08-14T21:20:26.068Z,99.90
2022-08-14T21:23:00.431Z,99.90
2022-08-14T21:25:31.870Z,99.90
2022-08-14T21:28:09.077Z,99.90
2022-08-14T21:30:57.559Z,99.90
2022-08-14T21:33:27.877Z,99.90
2022-08-14T21:36:00.404Z,99.90
2022-08-14T21:38:38.084Z,99.90
2022-08-14T21:41:43.242Z,99.90
2022-08-14T21:44:17.385Z,99.90
2022-08-14T21:46:50.263Z,99.90
2022-08-14T21:49:23.509Z,99.90
2022-08-14T21:51:59.991Z,99.90
2022-08-14T21:54:49.131Z,99.90
2022-08-14T21:58:46.214Z,99.90
2022-08-14T22:00:35.657Z,99.90
2022-08-14T22:03:09.240Z,99.90
2022-08-14T22:05:41.729Z,99.90
2022-08-14T22:08:14.036Z,99.90
2022-08-14T22:10:46.533Z,99.90
2022-08-14T22:13:16.729Z,99.90
2022-08-14T22:15:50.018Z,99.90
2022-08-14T22:18:21.113Z,99.90
2022-08-14T22:20:56.461Z,99.90
2022-08-14T22:23:27.145Z,99.90
2022-08-14T22:25:56.259Z,99.90
2022-08-14T22:28:33.004Z,99.90
2022-08-14T22:31:10.380Z,99.90
2022-08-14T22:33:43.000Z,99.90
2022-08-14T22:36:33.956Z,99.90
2022-08-14T22:39:11.468Z,99.90
2022-08-14T22:41:43.042Z,99.90
2022-08-14T22:44:15.946Z,99.90
2022-08-14T22:46:45.131Z,99.90
2022-08-14T22:50:31.937Z,99.90
2022-08-14T22:52:33.051Z,99.90
2022-08-14T22:55:00.476Z,99.90
2022-08-14T22:57:37.914Z,99.90
2022-08-14T23:00:16.269Z,99.90
2022-08-14T23:02:46.772Z,99.90
2022-08-14T23:05:15.957Z,99.90
2022-08-14T23:08:59.424Z,99.90
2022-08-14T23:10:35.036Z,99.90
2022-08-14T23:13:06.766Z,99.90
2022-08-14T23:15:37.529Z,99.90
2022-08-14T23:18:06.439Z,99.90
2022-08-14T23:20:42.425Z,99.90
2022-08-14T23:23:22.309Z,99.90
2022-08-14T23:25:59.289Z,99.90
2022-08-14T23:28:33.401Z,99.90
2022-08-14T23:31:05.755Z,99.90
2022-08-14T23:33:36.055Z,99.90
2022-08-14T23:36:31.583Z,99.90
2022-08-14T23:39:07.184Z,99.90
2022-08-14T23:41:46.833Z,99.90
2022-08-14T23:44:24.136Z,99.90
2022-08-14T23:46:56.573Z,99.90
2022-08-14T23:49:25.716Z,99.90
2022-08-14T23:52:51.507Z,99.90
2022-08-14T23:54:48.238Z,99.90
2022-08-14T23:57:19.000Z,99.90
2022-08-14T23:59:54.279Z,99.90
